Time;durP1;ratioP1;P1;durP2;ratioP2;P2;SDS_P1;SDS_P2;PMS_P1;PMS_P2;Temp;Humidity;BMP_temperature;BMP_pressure;BME280_temperature;BME280_humidity;BME280_pressure;Samples;Min_cycle;Max_cycle;Signal;HPM_P1;HPM_P2
2022/11/26 00:01:46;;;;;;;2.75;1.20;;;23.60;99.90;;;;;;5067603;28;20203;-81
2022/11/26 00:04:16;;;;;;;4.60;1.50;;;23.70;99.90;;;;;;5088637;28;20322;-81
2022/11/26 00:06:48;;;;;;;5.22;1.30;;;23.80;99.90;;;;;;5073818;28;20196;-81
2022/11/26 00:09:23;;;;;;;4.38;1.30;;;23.80;99.90;;;;;;5070618;28;20253;-81
2022/11/26 00:11:56;;;;;;;3.53;1.40;;;24.00;99.90;;;;;;5071100;28;20195;-81
2022/11/26 00:14:27;;;;;;;2.22;1.00;;;24.10;99.90;;;;;;5071177;28;20204;-82
2022/11/26 00:16:58;;;;;;;3.83;1.13;;;24.30;99.90;;;;;;5057006;28;20243;-81
2022/11/26 00:19:29;;;;;;;3.38;1.13;;;24.20;99.90;;;;;;5067130;28;20223;-81
2022/11/26 00:22:00;;;;;;;4.82;1.45;;;24.20;99.90;;;;;;5071933;28;20283;-82
2022/11/26 00:24:32;;;;;;;4.75;1.52;;;23.80;99.90;;;;;;5052385;28;20230;-82
2022/11/26 00:27:09;;;;;;;3.72;1.48;;;23.80;99.90;;;;;;5056519;28;20220;-82
2022/11/26 00:29:41;;;;;;;2.58;1.30;;;23.80;99.90;;;;;;5051766;28;20284;-82
2022/11/26 00:32:18;;;;;;;2.45;1.30;;;23.70;99.90;;;;;;5055487;28;20196;-82
2022/11/26 00:34:49;;;;;;;3.42;1.70;;;23.70;99.90;;;;;;5052701;28;20291;-82
2022/11/26 00:37:23;;;;;;;3.47;1.55;;;23.80;99.90;;;;;;5049473;28;20275;-82
2022/11/26 00:39:55;;;;;;;5.47;1.90;;;23.90;99.90;;;;;;5057780;28;20205;-82
2022/11/26 00:42:28;;;;;;;4.28;1.63;;;24.20;99.90;;;;;;5071657;28;20211;-83
2022/11/26 00:45:00;;;;;;;3.83;1.60;;;24.40;99.90;;;;;;5071456;28;20276;-82
2022/11/26 00:47:30;;;;;;;4.45;1.70;;;24.50;99.90;;;;;;5059508;28;20204;-82
2022/11/26 00:50:09;;;;;;;4.88;1.60;;;24.60;99.90;;;;;;5061295;28;20268;-83
2022/11/26 00:52:40;;;;;;;3.08;1.42;;;24.50;99.90;;;;;;5078212;28;20286;-80
2022/11/26 00:55:17;;;;;;;4.60;1.48;;;24.50;99.90;;;;;;5071004;28;20231;-81
2022/11/26 00:57:52;;;;;;;2.60;1.50;;;24.60;99.90;;;;;;5070205;28;20204;-81
2022/11/26 01:00:25;;;;;;;3.25;1.40;;;24.70;99.90;;;;;;5071420;28;20198;-81
2022/11/26 01:02:56;;;;;;;2.95;1.27;;;24.50;99.90;;;;;;5073234;28;20654;-82
2022/11/26 01:05:29;;;;;;;5.65;1.73;;;24.50;99.90;;;;;;5064357;28;20307;-81
2022/11/26 01:08:03;;;;;;;3.92;1.35;;;24.40;99.90;;;;;;5065878;28;20196;-81
2022/11/26 01:10:34;;;;;;;3.55;1.60;;;24.20;99.90;;;;;;5067236;28;20405;-82
2022/11/26 01:13:08;;;;;;;5.78;1.80;;;24.30;99.90;;;;;;5069147;28;20196;-82
2022/11/26 01:15:38;;;;;;;3.40;1.40;;;24.30;99.90;;;;;;5064902;28;20192;-81
2022/11/26 01:18:16;;;;;;;3.53;1.45;;;24.60;99.90;;;;;;5071157;28;20195;-81
2022/11/26 01:20:48;;;;;;;5.30;1.65;;;24.80;99.90;;;;;;5071095;28;20200;-80
2022/11/26 01:23:21;;;;;;;3.70;1.70;;;24.90;99.90;;;;;;5069438;28;20278;-81
2022/11/26 01:25:52;;;;;;;2.53;1.42;;;24.70;99.90;;;;;;5058258;28;20317;-81
2022/11/26 01:28:24;;;;;;;4.20;1.42;;;24.80;99.90;;;;;;5051299;28;20204;-82
2022/11/26 01:30:56;;;;;;;2.95;1.48;;;24.70;99.90;;;;;;5050778;28;20203;-81
2022/11/26 01:33:26;;;;;;;3.80;1.50;;;24.70;99.90;;;;;;5050709;28;20206;-81
2022/11/26 01:35:58;;;;;;;4.05;1.45;;;24.50;99.90;;;;;;5050890;28;20200;-81
2022/11/26 01:38:28;;;;;;;3.70;1.50;;;24.50;99.90;;;;;;5050919;28;20197;-81
2022/11/26 01:41:17;;;;;;;3.58;1.50;;;24.50;99.90;;;;;;5051218;28;20207;-81
2022/11/26 01:43:51;;;;;;;5.53;1.73;;;24.80;99.90;;;;;;5064114;28;20265;-82
2022/11/26 01:46:25;;;;;;;2.85;1.55;;;25.00;99.90;;;;;;5071652;28;20202;-82
2022/11/26 01:48:56;;;;;;;5.68;1.73;;;25.10;99.90;;;;;;5053664;28;20200;-81
2022/11/26 01:51:28;;;;;;;3.85;1.48;;;24.90;99.90;;;;;;5054826;28;20213;-81
2022/11/26 01:54:01;;;;;;;5.20;1.42;;;25.00;99.90;;;;;;5069937;28;20212;-81
2022/11/26 01:56:37;;;;;;;5.45;1.45;;;25.10;99.90;;;;;;5071264;28;20673;-81
2022/11/26 01:59:17;;;;;;;4.80;1.30;;;25.20;99.90;;;;;;5070106;28;20222;-81
2022/11/26 02:01:50;;;;;;;6.15;1.65;;;25.40;99.90;;;;;;5050965;28;20181;-81
2022/11/26 02:04:25;;;;;;;4.65;1.70;;;25.50;99.90;;;;;;5050938;28;20251;-81
2022/11/26 02:06:58;;;;;;;5.97;1.85;;;25.50;99.90;;;;;;5050608;28;20239;-81
2022/11/26 02:09:30;;;;;;;3.67;1.80;;;25.50;99.90;;;;;;5050271;28;20224;-81
2022/11/26 02:12:01;;;;;;;5.75;1.85;;;25.50;99.90;;;;;;5050461;28;20262;-81
2022/11/26 02:14:37;;;;;;;2.95;1.50;;;25.50;99.90;;;;;;5051576;28;20193;-81
2022/11/26 02:17:19;;;;;;;4.70;1.83;;;25.50;99.90;;;;;;5062397;28;20600;-81
2022/11/26 02:20:23;;;;;;;3.13;1.63;;;25.50;99.90;;;;;;5078536;28;20200;-81
2022/11/26 02:23:27;;;;;;;4.28;1.58;;;25.40;99.90;;;;;;5077232;28;20195;-81
2022/11/26 02:26:21;;;;;;;3.10;1.20;;;25.40;99.90;;;;;;5084422;28;20195;-81
2022/11/26 02:29:08;;;;;;;5.20;1.55;;;25.20;99.90;;;;;;5081613;28;20226;-80
2022/11/26 02:31:46;;;;;;;3.50;1.45;;;25.20;99.90;;;;;;5083793;28;20207;-81
2022/11/26 02:34:24;;;;;;;3.80;1.50;;;25.10;99.90;;;;;;5054612;28;20287;-80
2022/11/26 02:36:58;;;;;;;5.20;1.55;;;25.20;99.90;;;;;;5074803;28;20199;-81
2022/11/26 02:39:31;;;;;;;4.22;1.38;;;25.20;99.90;;;;;;5073921;28;20199;-81
2022/11/26 02:42:04;;;;;;;3.53;1.50;;;25.20;99.90;;;;;;5074237;28;20227;-81
2022/11/26 02:44:41;;;;;;;8.18;1.73;;;25.30;99.90;;;;;;5074050;28;20224;-81
2022/11/26 02:47:19;;;;;;;5.75;1.55;;;25.10;99.90;;;;;;5074482;28;20223;-81
2022/11/26 02:49:54;;;;;;;3.63;1.50;;;25.20;99.90;;;;;;5073992;28;20204;-81
2022/11/26 02:52:25;;;;;;;4.63;1.50;;;25.40;99.90;;;;;;5073589;28;20195;-81
2022/11/26 02:54:56;;;;;;;5.28;1.65;;;25.70;99.90;;;;;;5085348;28;20302;-82
2022/11/26 02:57:30;;;;;;;2.88;1.38;;;25.90;99.90;;;;;;5082307;28;20544;-82
2022/11/26 03:00:02;;;;;;;3.13;1.30;;;25.90;99.90;;;;;;5074764;28;20199;-82
2022/11/26 03:02:41;;;;;;;3.60;1.45;;;26.00;99.90;;;;;;5074196;28;20230;-82
2022/11/26 03:05:15;;;;;;;6.63;1.50;;;26.00;99.90;;;;;;5078853;28;20230;-81
2022/11/26 03:07:49;;;;;;;4.22;1.48;;;25.90;99.90;;;;;;5054138;28;20201;-82
2022/11/26 03:10:22;;;;;;;5.07;1.30;;;25.70;99.90;;;;;;5055585;28;20311;-81
2022/11/26 03:12:52;;;;;;;4.90;1.67;;;25.60;99.90;;;;;;5055239;28;20685;-82
2022/11/26 03:15:24;;;;;;;3.92;1.52;;;25.60;99.90;;;;;;5055644;28;20204;-82
2022/11/26 03:17:56;;;;;;;2.92;1.55;;;25.50;99.90;;;;;;5054265;28;20196;-81
2022/11/26 03:20:28;;;;;;;4.88;1.70;;;25.40;99.90;;;;;;5053729;28;20296;-82
2022/11/26 03:22:58;;;;;;;5.07;1.63;;;25.20;99.90;;;;;;5060806;28;20266;-81
2022/11/26 03:25:29;;;;;;;5.65;1.90;;;25.20;99.90;;;;;;5063217;28;20216;-82
2022/11/26 03:28:01;;;;;;;2.50;1.42;;;25.20;99.90;;;;;;5075861;28;20204;-82
2022/11/26 03:30:32;;;;;;;5.82;1.10;;;25.40;99.90;;;;;;5074971;28;20240;-81
2022/11/26 03:33:04;;;;;;;4.07;1.45;;;25.60;99.90;;;;;;5073284;28;20202;-82
2022/11/26 03:35:35;;;;;;;4.35;1.67;;;25.90;99.90;;;;;;5073142;28;20195;-82
2022/11/26 03:38:06;;;;;;;2.35;1.17;;;25.90;99.90;;;;;;5072858;28;20226;-82
2022/11/26 03:40:37;;;;;;;3.30;1.10;;;26.00;99.90;;;;;;5060994;28;20197;-82
2022/11/26 03:43:09;;;;;;;4.43;1.40;;;26.20;99.90;;;;;;5072791;28;20685;-82
2022/11/26 03:45:40;;;;;;;4.80;1.50;;;26.10;99.90;;;;;;5072584;28;20224;-82
2022/11/26 03:48:13;;;;;;;2.97;1.10;;;26.10;99.90;;;;;;5071278;28;20711;-81
2022/11/26 03:50:43;;;;;;;3.97;1.30;;;26.20;99.90;;;;;;5072900;28;20184;-81
2022/11/26 03:53:15;;;;;;;4.50;1.20;;;26.40;97.90;;;;;;5073068;28;20278;-81
2022/11/26 03:55:46;;;;;;;2.72;1.20;;;26.40;98.50;;;;;;5085168;28;20589;-82
2022/11/26 03:58:17;;;;;;;2.55;1.08;;;26.30;97.30;;;;;;5076693;28;20188;-81
2022/11/26 04:00:48;;;;;;;3.53;1.20;;;26.30;96.80;;;;;;5076246;28;20204;-82
2022/11/26 04:03:21;;;;;;;2.80;1.00;;;26.20;97.70;;;;;;5073544;28;20199;-81
2022/11/26 04:05:52;;;;;;;5.40;1.00;;;26.10;97.10;;;;;;5065305;28;20310;-81
2022/11/26 04:08:23;;;;;;;3.85;1.02;;;26.10;97.60;;;;;;5073125;28;20287;-81
2022/11/26 04:10:55;;;;;;;5.32;1.42;;;26.10;97.70;;;;;;5065292;28;20196;-81
2022/11/26 04:13:26;;;;;;;2.35;1.00;;;25.90;98.80;;;;;;5053649;28;20261;-82
2022/11/26 04:15:56;;;;;;;2.40;0.90;;;26.00;98.60;;;;;;5068378;28;20688;-81
2022/11/26 04:18:29;;;;;;;4.82;1.10;;;26.10;98.10;;;;;;5058251;28;20199;-83
2022/11/26 04:21:00;;;;;;;5.80;1.20;;;26.20;99.00;;;;;;5061025;28;20671;-81
2022/11/26 04:23:31;;;;;;;3.90;1.00;;;26.30;98.60;;;;;;5050063;28;20217;-82
2022/11/26 04:26:02;;;;;;;3.97;1.00;;;26.30;99.00;;;;;;5062354;28;20239;-81
2022/11/26 04:28:33;;;;;;;3.28;0.90;;;26.40;98.50;;;;;;5068391;28;20194;-81
2022/11/26 04:31:04;;;;;;;5.65;1.05;;;26.30;99.20;;;;;;5063877;28;20232;-81
2022/11/26 04:33:38;;;;;;;3.85;1.00;;;26.20;99.40;;;;;;5064020;28;20273;-81
2022/11/26 04:36:09;;;;;;;4.93;1.10;;;26.40;98.40;;;;;;5051325;28;20203;-81
2022/11/26 04:38:40;;;;;;;3.10;1.05;;;26.60;98.30;;;;;;5050452;28;20675;-82
2022/11/26 04:41:11;;;;;;;4.32;0.90;;;26.80;98.90;;;;;;5057027;28;20279;-81
2022/11/26 04:43:42;;;;;;;5.55;1.08;;;26.70;97.00;;;;;;5071205;28;20203;-81
2022/11/26 04:46:13;;;;;;;1.90;0.80;;;26.80;97.20;;;;;;5071425;28;20289;-81
2022/11/26 04:48:49;;;;;;;2.47;1.00;;;26.70;96.10;;;;;;5054520;28;20204;-82
2022/11/26 04:51:19;;;;;;;4.13;1.00;;;26.40;97.30;;;;;;5057288;28;20269;-81
2022/11/26 04:53:51;;;;;;;4.10;1.20;;;26.40;97.30;;;;;;5070744;28;20242;-82
2022/11/26 04:56:22;;;;;;;1.92;0.80;;;26.50;96.80;;;;;;5072735;28;20220;-81
2022/11/26 04:58:53;;;;;;;6.50;1.20;;;26.50;96.50;;;;;;5075289;28;20218;-81
2022/11/26 05:01:24;;;;;;;2.60;1.20;;;26.70;96.60;;;;;;5082811;28;20192;-81
2022/11/26 05:03:58;;;;;;;3.60;0.80;;;26.80;96.90;;;;;;5071946;28;20210;-81
2022/11/26 05:06:29;;;;;;;3.60;1.00;;;26.90;96.70;;;;;;5051135;28;20207;-81
2022/11/26 05:08:59;;;;;;;4.53;0.90;;;27.00;96.50;;;;;;5051147;28;20667;-81
2022/11/26 05:11:31;;;;;;;3.58;0.98;;;27.20;96.30;;;;;;5051227;28;20196;-81
2022/11/26 05:14:01;;;;;;;4.35;0.80;;;27.20;95.90;;;;;;5058554;28;20285;-80
2022/11/26 05:16:32;;;;;;;3.47;1.05;;;26.70;96.80;;;;;;5070045;28;20577;-80
2022/11/26 05:19:05;;;;;;;5.47;1.20;;;26.40;96.80;;;;;;5069847;28;20196;-80
2022/11/26 05:21:36;;;;;;;3.13;0.93;;;26.40;96.90;;;;;;5067488;28;20656;-80
2022/11/26 05:24:07;;;;;;;2.53;0.70;;;26.10;96.30;;;;;;5068705;28;20207;-80
2022/11/26 05:26:37;;;;;;;4.10;1.02;;;26.20;96.70;;;;;;5061256;28;20193;-80
2022/11/26 05:29:08;;;;;;;2.20;0.85;;;26.50;96.60;;;;;;5050538;28;20207;-80
2022/11/26 05:31:39;;;;;;;3.35;0.93;;;27.00;96.20;;;;;;5065991;28;20277;-80
2022/11/26 05:34:12;;;;;;;3.20;0.90;;;27.30;95.90;;;;;;5050630;28;20192;-81
2022/11/26 05:36:42;;;;;;;4.50;0.80;;;27.40;95.70;;;;;;5051750;28;20207;-80
2022/11/26 05:39:14;;;;;;;5.93;1.10;;;27.70;95.30;;;;;;5063271;28;20192;-80
2022/11/26 05:41:45;;;;;;;3.83;1.00;;;27.70;95.20;;;;;;5056354;28;20239;-81
2022/11/26 05:44:16;;;;;;;4.30;0.80;;;27.90;95.20;;;;;;5061510;28;20211;-80
2022/11/26 05:46:46;;;;;;;4.68;1.00;;;27.70;93.50;;;;;;5066913;28;20217;-81
2022/11/26 05:49:19;;;;;;;4.15;0.77;;;27.00;95.10;;;;;;5068624;28;20211;-81
2022/11/26 05:51:50;;;;;;;3.40;0.98;;;26.70;96.30;;;;;;5070683;28;20195;-80
2022/11/26 05:54:21;;;;;;;7.72;1.05;;;26.80;96.00;;;;;;5070304;28;20228;-81
2022/11/26 05:56:52;;;;;;;3.95;0.93;;;26.60;96.80;;;;;;5069971;28;20209;-81
2022/11/26 05:59:23;;;;;;;4.00;1.15;;;26.60;96.60;;;;;;5070370;28;20196;-80
2022/11/26 06:01:54;;;;;;;4.32;1.10;;;26.30;97.30;;;;;;5079575;28;20248;-79
2022/11/26 06:04:28;;;;;;;4.15;1.10;;;26.40;96.30;;;;;;5081908;28;20196;-80
2022/11/26 06:06:58;;;;;;;4.40;0.90;;;26.30;96.30;;;;;;5071973;28;20287;-81
2022/11/26 06:09:30;;;;;;;4.90;0.90;;;26.30;97.00;;;;;;5071570;28;20299;-81
2022/11/26 06:12:01;;;;;;;2.67;0.88;;;26.10;97.60;;;;;;5070034;28;20206;-81
2022/11/26 06:14:31;;;;;;;4.80;1.10;;;26.20;98.20;;;;;;5060091;28;20192;-81
2022/11/26 06:17:02;;;;;;;3.63;0.88;;;25.90;98.10;;;;;;5061215;28;20215;-81
2022/11/26 06:19:35;;;;;;;3.97;1.00;;;25.80;97.90;;;;;;5050604;28;20621;-81
2022/11/26 06:22:06;;;;;;;2.92;0.98;;;25.80;98.00;;;;;;5054979;28;20271;-81
2022/11/26 06:24:37;;;;;;;5.03;1.00;;;26.20;97.50;;;;;;5070414;28;20226;-80
2022/11/26 06:27:08;;;;;;;4.88;1.00;;;26.70;96.50;;;;;;5064239;28;20561;-81
2022/11/26 06:29:39;;;;;;;2.78;0.95;;;26.90;95.80;;;;;;5060083;28;20197;-81
2022/11/26 06:32:10;;;;;;;5.68;1.10;;;26.90;96.20;;;;;;5056451;28;20196;-81
2022/11/26 06:34:43;;;;;;;4.00;0.80;;;26.90;96.30;;;;;;5062766;28;20193;-81
2022/11/26 06:37:14;;;;;;;6.20;1.30;;;26.80;96.30;;;;;;5068288;28;20172;-82
2022/11/26 06:39:44;;;;;;;5.85;1.20;;;26.60;96.40;;;;;;5070423;28;20222;-81
2022/11/26 06:42:15;;;;;;;4.32;0.80;;;26.50;96.20;;;;;;5050304;28;20746;-81
2022/11/26 06:44:49;;;;;;;5.13;1.05;;;26.80;96.30;;;;;;5049944;28;20204;-81
2022/11/26 06:47:20;;;;;;;5.15;1.00;;;26.70;95.60;;;;;;5063935;28;20200;-81
2022/11/26 06:49:52;;;;;;;3.60;0.77;;;26.20;96.40;;;;;;5070054;28;20654;-81
2022/11/26 06:52:23;;;;;;;6.53;1.00;;;25.70;96.90;;;;;;5070255;28;20275;-81
2022/11/26 06:54:55;;;;;;;4.68;1.10;;;25.70;98.00;;;;;;5069995;28;20236;-82
2022/11/26 06:57:25;;;;;;;5.22;1.15;;;25.60;98.10;;;;;;5070606;28;20196;-82
2022/11/26 06:59:56;;;;;;;4.85;0.90;;;25.80;98.00;;;;;;5066754;28;20208;-81
2022/11/26 07:02:27;;;;;;;4.95;1.00;;;25.90;97.70;;;;;;5061602;28;20739;-82
2022/11/26 07:05:00;;;;;;;2.58;0.90;;;25.60;98.20;;;;;;5086645;28;20224;-80
2022/11/26 07:07:31;;;;;;;6.20;1.27;;;25.70;99.40;;;;;;5072310;28;20284;-80
2022/11/26 07:10:01;;;;;;;4.18;1.00;;;25.50;99.20;;;;;;5074668;28;20285;-79
2022/11/26 07:12:32;;;;;;;4.30;1.00;;;25.40;99.90;;;;;;5073986;28;20207;-81
2022/11/26 07:15:03;;;;;;;4.30;1.00;;;25.30;99.90;;;;;;5074137;28;20203;-82
2022/11/26 07:17:34;;;;;;;3.60;1.08;;;25.40;99.90;;;;;;5073951;28;20202;-82
2022/11/26 07:20:07;;;;;;;5.10;1.00;;;25.40;99.90;;;;;;5073160;28;20655;-82
2022/11/26 07:22:38;;;;;;;4.53;1.20;;;25.20;99.90;;;;;;5056223;28;20307;-82
2022/11/26 07:25:10;;;;;;;5.95;1.63;;;24.90;99.90;;;;;;5073236;28;20224;-82
2022/11/26 07:27:44;;;;;;;3.25;1.52;;;25.00;99.90;;;;;;5071409;28;20540;-81
2022/11/26 07:30:15;;;;;;;4.07;1.40;;;24.70;99.90;;;;;;5073252;28;20200;-82
2022/11/26 07:32:46;;;;;;;5.80;1.45;;;24.40;99.90;;;;;;5073109;28;20643;-82
2022/11/26 07:35:19;;;;;;;3.38;0.98;;;24.30;99.90;;;;;;5073118;28;20200;-82
2022/11/26 07:37:50;;;;;;;3.08;0.98;;;23.90;99.90;;;;;;5066826;28;20297;-82
2022/11/26 07:40:21;;;;;;;3.95;0.90;;;23.80;99.90;;;;;;5053173;28;20202;-82
2022/11/26 07:42:52;;;;;;;5.72;1.10;;;23.60;99.90;;;;;;5072359;28;20200;-82
2022/11/26 07:45:23;;;;;;;4.18;0.98;;;23.80;99.90;;;;;;5072575;28;20216;-82
2022/11/26 07:47:54;;;;;;;4.03;1.00;;;24.10;99.90;;;;;;5072902;28;20196;-82
2022/11/26 07:50:26;;;;;;;5.82;1.10;;;24.10;99.90;;;;;;5071468;28;20196;-82
2022/11/26 07:52:57;;;;;;;4.93;1.15;;;24.10;99.90;;;;;;5073242;28;20196;-82
2022/11/26 07:55:28;;;;;;;4.53;1.20;;;23.90;99.90;;;;;;5059410;28;20231;-82
2022/11/26 07:57:59;;;;;;;4.22;1.20;;;23.70;99.90;;;;;;5070903;28;20200;-81
2022/11/26 08:00:30;;;;;;;2.38;0.80;;;23.50;99.90;;;;;;5059232;28;20196;-81
2022/11/26 08:03:02;;;;;;;7.25;1.35;;;23.40;99.90;;;;;;5057618;28;20197;-81
2022/11/26 08:05:35;;;;;;;4.82;1.15;;;23.30;99.90;;;;;;5052761;28;20231;-81
2022/11/26 08:08:06;;;;;;;7.60;1.35;;;23.30;99.90;;;;;;5068233;28;20201;-81
2022/11/26 08:10:36;;;;;;;5.70;1.30;;;23.30;99.90;;;;;;5075310;28;20192;-82
2022/11/26 08:13:07;;;;;;;3.72;1.10;;;23.20;99.90;;;;;;5071426;28;20657;-81
2022/11/26 08:15:38;;;;;;;4.93;1.02;;;23.10;99.90;;;;;;5061621;28;20219;-82
2022/11/26 08:18:10;;;;;;;3.28;1.00;;;23.00;99.90;;;;;;5052379;28;20598;-82
2022/11/26 08:20:43;;;;;;;4.32;1.05;;;22.80;99.90;;;;;;5063263;28;20196;-82
2022/11/26 08:23:14;;;;;;;4.18;1.27;;;22.70;99.90;;;;;;5072351;28;20202;-82
2022/11/26 08:25:44;;;;;;;5.15;1.30;;;22.70;99.90;;;;;;5071584;28;20224;-82
2022/11/26 08:28:15;;;;;;;5.80;1.50;;;22.50;99.90;;;;;;5070200;28;20203;-82
2022/11/26 08:30:46;;;;;;;3.33;1.13;;;22.40;99.90;;;;;;5052382;28;20196;-81
2022/11/26 08:33:17;;;;;;;7.13;1.30;;;22.40;99.90;;;;;;5067244;28;20743;-82
2022/11/26 08:35:51;;;;;;;6.35;1.30;;;22.30;99.90;;;;;;5066533;28;20205;-82
2022/11/26 08:38:22;;;;;;;3.45;1.15;;;22.30;99.90;;;;;;5054911;28;20284;-82
2022/11/26 08:40:53;;;;;;;4.55;1.00;;;22.10;99.90;;;;;;5056958;28;20201;-82
2022/11/26 08:43:24;;;;;;;4.13;1.00;;;22.20;99.90;;;;;;5055926;28;20200;-82
2022/11/26 08:45:59;;;;;;;3.55;0.80;;;22.10;99.90;;;;;;5065303;28;20232;-82
2022/11/26 08:48:31;;;;;;;2.53;0.90;;;22.10;99.90;;;;;;5060917;28;20196;-80
2022/11/26 08:51:06;;;;;;;8.98;1.30;;;22.00;99.90;;;;;;5075809;28;20204;-83
2022/11/26 08:53:38;;;;;;;6.72;1.40;;;22.00;99.90;;;;;;5076140;28;20200;-81
2022/11/26 08:56:10;;;;;;;3.92;1.23;;;21.90;99.90;;;;;;5074671;28;20219;-81
2022/11/26 08:58:43;;;;;;;3.50;1.08;;;21.80;99.90;;;;;;5074860;28;20288;-81
2022/11/26 09:01:16;;;;;;;3.28;0.93;;;21.80;99.90;;;;;;5072858;28;20204;-81
2022/11/26 09:03:49;;;;;;;3.80;1.17;;;21.80;99.90;;;;;;5055877;28;20200;-81
2022/11/26 09:06:24;;;;;;;4.28;1.65;;;21.80;99.90;;;;;;5060051;28;20235;-81
2022/11/26 09:11:45;;;;;;;4.68;1.70;;;21.70;99.90;;;;;;5053908;28;20678;-81
2022/11/26 09:14:17;;;;;;;4.95;1.42;;;21.70;99.90;;;;;;5051094;28;20200;-81
2022/11/26 09:16:48;;;;;;;4.78;1.40;;;21.70;99.90;;;;;;5067561;28;20199;-82
2022/11/26 09:19:19;;;;;;;2.53;0.98;;;21.60;99.90;;;;;;5070677;28;20199;-81
2022/11/26 09:21:55;;;;;;;4.38;1.15;;;21.60;99.90;;;;;;5070397;28;20235;-81
2022/11/26 09:24:26;;;;;;;4.80;1.17;;;21.50;99.90;;;;;;5068715;28;20206;-84
2022/11/26 09:26:57;;;;;;;4.05;1.10;;;21.50;99.90;;;;;;5063552;28;20230;-83
2022/11/26 09:29:28;;;;;;;5.88;1.50;;;21.50;99.90;;;;;;5059133;28;20211;-84
2022/11/26 09:34:42;;;;;;;6.00;1.25;;;21.50;99.90;;;;;;5077988;28;20199;-83
2022/11/26 09:37:14;;;;;;;5.43;1.25;;;21.40;99.90;;;;;;5067256;28;20193;-83
2022/11/26 09:39:58;;;;;;;4.70;1.00;;;21.30;99.90;;;;;;5071755;28;20196;-82
2022/11/26 09:42:46;;;;;;;3.90;1.10;;;21.30;99.90;;;;;;5072310;28;20843;-82
2022/11/26 09:45:39;;;;;;;8.15;1.55;;;21.30;99.90;;;;;;5079935;28;20198;-83
2022/11/26 09:48:21;;;;;;;3.25;1.00;;;21.30;99.90;;;;;;5065464;28;20215;-83
2022/11/26 09:50:53;;;;;;;8.15;1.20;;;21.20;99.90;;;;;;5071105;28;20200;-82
2022/11/26 09:53:29;;;;;;;2.72;1.25;;;21.30;99.90;;;;;;5075501;28;20215;-83
2022/11/26 09:56:05;;;;;;;5.78;1.02;;;21.20;99.90;;;;;;5072974;28;20638;-82
2022/11/26 09:58:48;;;;;;;7.93;1.23;;;21.20;99.90;;;;;;5079339;28;20223;-83
2022/11/26 10:01:23;;;;;;;5.13;1.17;;;21.00;99.90;;;;;;5076170;28;20569;-84
2022/11/26 10:03:54;;;;;;;4.85;1.25;;;21.00;99.90;;;;;;5066259;28;20200;-82
2022/11/26 10:06:38;;;;;;;5.63;1.10;;;21.00;99.90;;;;;;5063603;28;20219;-82
2022/11/26 10:09:28;;;;;;;4.68;1.27;;;20.90;99.90;;;;;;5071009;28;20206;-83
2022/11/26 10:12:05;;;;;;;3.25;1.13;;;20.90;99.90;;;;;;5079144;28;20772;-82
2022/11/26 10:14:46;;;;;;;3.65;1.10;;;20.90;99.90;;;;;;5073672;28;20191;-82
2022/11/26 10:17:29;;;;;;;5.72;1.45;;;20.90;99.90;;;;;;5069066;28;20205;-82
2022/11/26 10:20:25;;;;;;;4.82;1.33;;;21.00;99.90;;;;;;5071388;28;20202;-82
2022/11/26 10:23:02;;;;;;;4.20;1.00;;;21.00;99.90;;;;;;5070731;28;20194;-84
2022/11/26 10:25:41;;;;;;;4.13;1.63;;;21.10;99.90;;;;;;5070271;28;20279;-83
2022/11/26 10:28:21;;;;;;;5.85;1.42;;;21.00;99.90;;;;;;5061100;28;20291;-82
2022/11/26 10:30:59;;;;;;;4.95;1.65;;;21.00;99.90;;;;;;5062730;28;20269;-82
2022/11/26 10:33:37;;;;;;;5.50;1.50;;;21.00;99.90;;;;;;5058965;28;20608;-83
2022/11/26 10:36:19;;;;;;;6.28;1.30;;;21.00;99.90;;;;;;5070608;28;20544;-83
2022/11/26 10:38:55;;;;;;;7.47;1.15;;;21.00;99.90;;;;;;5074079;28;20207;-82
2022/11/26 10:41:31;;;;;;;3.28;1.23;;;21.00;99.90;;;;;;5074291;28;20194;-82
2022/11/26 10:44:33;;;;;;;4.38;1.25;;;21.00;99.90;;;;;;5073832;28;20237;-82
2022/11/26 10:47:23;;;;;;;5.38;1.35;;;21.00;99.90;;;;;;5069918;28;20310;-83
2022/11/26 10:49:55;;;;;;;4.47;1.17;;;20.90;99.90;;;;;;5073081;28;20196;-81
2022/11/26 10:52:29;;;;;;;5.00;1.25;;;20.90;99.90;;;;;;5072530;28;20199;-83
2022/11/26 10:55:28;;;;;;;4.20;1.15;;;20.90;99.90;;;;;;5074442;28;20227;-83
2022/11/26 10:58:04;;;;;;;3.85;1.10;;;20.90;99.90;;;;;;5043202;28;20204;-84
2022/11/26 11:00:41;;;;;;;5.00;1.30;;;20.90;99.90;;;;;;5074534;28;20278;-84
2022/11/26 11:03:19;;;;;;;4.95;1.23;;;20.90;99.90;;;;;;5073446;28;20203;-83
2022/11/26 11:05:50;;;;;;;4.70;1.20;;;20.90;99.90;;;;;;5094257;28;20711;-83
2022/11/26 11:08:32;;;;;;;3.88;1.10;;;20.90;99.90;;;;;;5073832;28;20200;-83
2022/11/26 11:11:04;;;;;;;4.38;1.17;;;20.80;99.90;;;;;;5075805;28;20279;-83
2022/11/26 11:13:47;;;;;;;4.45;1.13;;;20.80;99.90;;;;;;5083271;28;20204;-83
2022/11/26 11:16:23;;;;;;;5.70;1.50;;;20.70;99.90;;;;;;5053910;28;20223;-83
2022/11/26 11:18:56;;;;;;;6.13;0.95;;;20.70;99.90;;;;;;5070421;28;20210;-84
2022/11/26 11:21:31;;;;;;;2.85;1.17;;;20.70;99.90;;;;;;5065210;28;20548;-83
2022/11/26 11:24:16;;;;;;;7.07;1.20;;;20.70;99.90;;;;;;5074747;28;20594;-83
2022/11/26 11:26:48;;;;;;;6.10;1.48;;;20.60;99.90;;;;;;5059421;28;20222;-83
2022/11/26 11:29:35;;;;;;;5.70;1.48;;;20.50;99.90;;;;;;5069145;28;20218;-84
2022/11/26 11:32:08;;;;;;;5.63;1.10;;;20.50;99.90;;;;;;5073543;28;20214;-83
2022/11/26 11:34:41;;;;;;;4.68;1.30;;;20.60;99.90;;;;;;5073561;28;20362;-84
2022/11/26 11:37:17;;;;;;;7.90;1.30;;;20.60;99.90;;;;;;5075768;28;20274;-83
2022/11/26 11:40:03;;;;;;;6.68;1.30;;;20.60;99.90;;;;;;5073475;28;20203;-83
2022/11/26 11:42:34;;;;;;;4.90;1.20;;;20.60;99.90;;;;;;5074036;28;20562;-84
2022/11/26 11:45:17;;;;;;;5.40;1.20;;;20.60;99.90;;;;;;5073181;28;20196;-84
2022/11/26 11:47:55;;;;;;;5.63;1.40;;;20.60;99.90;;;;;;5072910;28;20224;-83
2022/11/26 11:50:32;;;;;;;4.25;1.08;;;20.60;99.90;;;;;;5071506;28;20203;-83
2022/11/26 11:53:30;;;;;;;4.13;1.02;;;20.60;99.90;;;;;;5073374;28;20204;-84
2022/11/26 11:56:23;;;;;;;10.18;1.23;;;20.60;99.90;;;;;;5073366;28;20551;-83
2022/11/26 11:59:35;;;;;;;6.47;1.13;;;20.60;99.90;;;;;;5073078;28;20200;-83
2022/11/26 12:02:42;;;;;;;3.00;1.15;;;20.60;99.90;;;;;;5072971;28;20200;-82
2022/11/26 12:05:52;;;;;;;6.00;1.20;;;20.50;99.90;;;;;;5054843;28;20191;-83
2022/11/26 12:08:37;;;;;;;3.30;1.20;;;20.50;99.90;;;;;;5026878;28;20230;-84
2022/11/26 12:11:25;;;;;;;5.25;1.70;;;20.50;99.90;;;;;;5054543;28;20739;-83
2022/11/26 12:14:01;;;;;;;6.43;1.35;;;20.50;99.90;;;;;;5070306;28;20212;-83
2022/11/26 12:16:37;;;;;;;3.83;1.38;;;20.50;99.90;;;;;;5067802;28;20235;-83
2022/11/26 12:19:19;;;;;;;4.20;1.38;;;20.50;99.90;;;;;;5073553;28;20206;-81
2022/11/26 12:21:56;;;;;;;3.85;1.08;;;20.50;99.90;;;;;;5072648;28;20271;-82
2022/11/26 12:24:33;;;;;;;4.57;1.10;;;20.40;99.90;;;;;;5074286;28;20279;-83
2022/11/26 12:27:10;;;;;;;4.65;1.23;;;20.40;99.90;;;;;;5076050;28;20231;-82
2022/11/26 12:29:45;;;;;;;6.20;1.08;;;20.40;99.90;;;;;;5072658;28;20204;-83
2022/11/26 12:32:19;;;;;;;3.45;1.13;;;20.40;99.90;;;;;;5072491;28;20662;-83
2022/11/26 12:34:54;;;;;;;6.15;1.45;;;20.40;99.90;;;;;;5059435;28;20200;-83
2022/11/26 12:37:31;;;;;;;5.10;1.40;;;20.40;99.90;;;;;;5054324;28;20621;-83
2022/11/26 12:40:08;;;;;;;8.80;1.33;;;20.40;99.90;;;;;;5057478;28;21457;-84
2022/11/26 12:42:44;;;;;;;5.75;1.25;;;20.40;99.90;;;;;;5074247;28;20175;-84
2022/11/26 12:45:29;;;;;;;4.68;1.15;;;20.40;99.90;;;;;;5065929;28;20279;-84
2022/11/26 12:48:02;;;;;;;5.10;1.45;;;20.30;99.90;;;;;;5072662;28;20223;-85
2022/11/26 12:50:39;;;;;;;5.18;1.67;;;20.30;99.90;;;;;;5066021;28;20206;-83
2022/11/26 12:53:18;;;;;;;5.20;1.27;;;20.40;99.90;;;;;;5053058;28;20275;-83
2022/11/26 12:56:02;;;;;;;5.43;1.45;;;20.30;99.90;;;;;;5050876;28;20236;-83
2022/11/26 12:58:42;;;;;;;6.20;1.17;;;20.30;99.90;;;;;;5051187;28;20809;-84
2022/11/26 13:01:14;;;;;;;4.10;1.50;;;20.30;99.90;;;;;;5051899;28;20192;-84
2022/11/26 13:03:45;;;;;;;4.70;1.20;;;20.30;99.90;;;;;;5053826;28;20264;-84
2022/11/26 13:06:41;;;;;;;6.05;1.30;;;20.20;99.90;;;;;;5071855;28;20195;-81
2022/11/26 13:09:25;;;;;;;4.15;1.10;;;20.30;99.90;;;;;;5059424;28;20196;-83
2022/11/26 13:12:06;;;;;;;4.13;1.10;;;20.30;99.90;;;;;;5075145;28;20188;-83
2022/11/26 13:14:46;;;;;;;5.85;1.23;;;20.20;99.90;;;;;;5072586;28;20198;-82
2022/11/26 13:17:18;;;;;;;6.82;1.30;;;20.30;99.90;;;;;;5071023;28;20214;-83
2022/11/26 13:19:52;;;;;;;4.75;1.20;;;20.30;99.90;;;;;;5074668;28;20177;-83
2022/11/26 13:22:47;;;;;;;7.45;1.50;;;20.20;99.90;;;;;;5081336;28;20199;-82
2022/11/26 13:25:47;;;;;;;3.83;1.15;;;20.20;99.90;;;;;;5091502;28;20203;-83
2022/11/26 13:28:27;;;;;;;5.95;1.33;;;20.20;99.90;;;;;;5079099;28;20220;-81
2022/11/26 13:31:12;;;;;;;7.32;1.35;;;20.10;99.90;;;;;;5070528;28;20670;-82
2022/11/26 13:34:07;;;;;;;4.75;1.08;;;20.10;99.90;;;;;;5070817;28;20192;-82